sensor_id;sensor_type;location;lat;lon;timestamp;P1;durP1;ratioP1;P2;durP2;ratioP2
5682;SDS011;2864;49.220;8.654;2023-07-31T00:01:39;5.80;;;2.00;;
5682;SDS011;2864;49.220;8.654;2023-07-31T00:04:05;5.70;;;2.30;;
5682;SDS011;2864;49.220;8.654;2023-07-31T00:06:30;6.97;;;2.10;;
5682;SDS011;2864;49.220;8.654;2023-07-31T00:08:56;4.50;;;2.07;;
5682;SDS011;2864;49.220;8.654;2023-07-31T00:21:44;5.03;;;2.00;;
5682;SDS011;2864;49.220;8.654;2023-07-31T00:24:09;5.43;;;2.30;;
5682;SDS011;2864;49.220;8.654;2023-07-31T00:26:35;6.27;;;2.10;;
5682;SDS011;2864;49.220;8.654;2023-07-31T00:29:00;4.53;;;2.33;;
5682;SDS011;2864;49.220;8.654;2023-07-31T00:31:26;6.77;;;2.20;;
5682;SDS011;2864;49.220;8.654;2023-07-31T00:33:51;4.87;;;2.30;;
5682;SDS011;2864;49.220;8.654;2023-07-31T00:36:17;5.17;;;2.33;;
5682;SDS011;2864;49.220;8.654;2023-07-31T00:38:43;5.23;;;2.10;;
5682;SDS011;2864;49.220;8.654;2023-07-31T00:41:08;3.87;;;2.10;;
5682;SDS011;2864;49.220;8.654;2023-07-31T00:43:34;4.90;;;1.97;;
5682;SDS011;2864;49.220;8.654;2023-07-31T00:45:59;5.63;;;2.00;;
5682;SDS011;2864;49.220;8.654;2023-07-31T00:48:25;5.03;;;2.10;;
5682;SDS011;2864;49.220;8.654;2023-07-31T00:50:51;7.00;;;2.37;;
5682;SDS011;2864;49.220;8.654;2023-07-31T00:53:17;4.87;;;2.00;;
5682;SDS011;2864;49.220;8.654;2023-07-31T00:55:42;4.93;;;2.37;;
5682;SDS011;2864;49.220;8.654;2023-07-31T00:58:09;5.27;;;2.10;;
5682;SDS011;2864;49.220;8.654;2023-07-31T01:00:34;5.47;;;1.90;;
5682;SDS011;2864;49.220;8.654;2023-07-31T01:03:00;5.43;;;2.50;;
5682;SDS011;2864;49.220;8.654;2023-07-31T01:08:15;6.00;;;2.67;;
5682;SDS011;2864;49.220;8.654;2023-07-31T01:10:50;6.50;;;2.00;;
5682;SDS011;2864;49.220;8.654;2023-07-31T01:13:20;6.43;;;2.33;;
5682;SDS011;2864;49.220;8.654;2023-07-31T01:15:46;6.00;;;2.53;;
5682;SDS011;2864;49.220;8.654;2023-07-31T01:18:12;11.77;;;2.60;;
5682;SDS011;2864;49.220;8.654;2023-07-31T01:20:37;5.13;;;2.23;;
5682;SDS011;2864;49.220;8.654;2023-07-31T01:23:23;6.73;;;2.27;;
5682;SDS011;2864;49.220;8.654;2023-07-31T01:26:11;7.70;;;2.10;;
5682;SDS011;2864;49.220;8.654;2023-07-31T01:28:47;5.73;;;2.30;;
5682;SDS011;2864;49.220;8.654;2023-07-31T01:31:37;5.00;;;2.43;;
5682;SDS011;2864;49.220;8.654;2023-07-31T01:34:04;3.07;;;2.10;;
5682;SDS011;2864;49.220;8.654;2023-07-31T01:36:33;3.40;;;2.00;;
5682;SDS011;2864;49.220;8.654;2023-07-31T01:38:59;3.00;;;2.17;;
5682;SDS011;2864;49.220;8.654;2023-07-31T01:41:26;5.90;;;2.03;;
5682;SDS011;2864;49.220;8.654;2023-07-31T01:43:52;4.83;;;2.50;;
5682;SDS011;2864;49.220;8.654;2023-07-31T01:46:17;4.17;;;2.37;;
5682;SDS011;2864;49.220;8.654;2023-07-31T01:48:43;4.93;;;2.27;;
5682;SDS011;2864;49.220;8.654;2023-07-31T01:51:08;4.93;;;2.30;;
5682;SDS011;2864;49.220;8.654;2023-07-31T01:53:34;4.17;;;2.37;;
5682;SDS011;2864;49.220;8.654;2023-07-31T01:55:59;5.23;;;2.57;;
5682;SDS011;2864;49.220;8.654;2023-07-31T01:58:25;2.90;;;2.20;;
5682;SDS011;2864;49.220;8.654;2023-07-31T02:00:51;5.63;;;2.07;;
5682;SDS011;2864;49.220;8.654;2023-07-31T02:03:16;7.17;;;2.40;;
5682;SDS011;2864;49.220;8.654;2023-07-31T02:05:45;6.23;;;2.43;;
5682;SDS011;2864;49.220;8.654;2023-07-31T02:08:12;4.50;;;2.20;;
5682;SDS011;2864;49.220;8.654;2023-07-31T02:10:38;10.43;;;2.20;;
5682;SDS011;2864;49.220;8.654;2023-07-31T02:13:03;5.80;;;2.17;;
5682;SDS011;2864;49.220;8.654;2023-07-31T02:15:29;3.83;;;2.17;;
5682;SDS011;2864;49.220;8.654;2023-07-31T02:17:55;4.87;;;2.00;;
5682;SDS011;2864;49.220;8.654;2023-07-31T02:20:20;4.93;;;2.20;;
5682;SDS011;2864;49.220;8.654;2023-07-31T02:22:46;5.50;;;2.60;;
5682;SDS011;2864;49.220;8.654;2023-07-31T02:25:12;5.13;;;2.20;;
5682;SDS011;2864;49.220;8.654;2023-07-31T02:27:37;4.93;;;2.20;;
5682;SDS011;2864;49.220;8.654;2023-07-31T02:30:03;4.03;;;2.47;;
5682;SDS011;2864;49.220;8.654;2023-07-31T02:32:29;4.67;;;2.30;;
5682;SDS011;2864;49.220;8.654;2023-07-31T02:34:54;5.30;;;2.27;;
5682;SDS011;2864;49.220;8.654;2023-07-31T02:37:20;5.53;;;2.40;;
5682;SDS011;2864;49.220;8.654;2023-07-31T02:39:45;6.40;;;2.17;;
5682;SDS011;2864;49.220;8.654;2023-07-31T02:42:11;7.43;;;2.30;;
5682;SDS011;2864;49.220;8.654;2023-07-31T02:44:37;3.97;;;2.07;;
5682;SDS011;2864;49.220;8.654;2023-07-31T02:47:03;4.57;;;2.30;;
5682;SDS011;2864;49.220;8.654;2023-07-31T02:49:28;4.67;;;2.10;;
5682;SDS011;2864;49.220;8.654;2023-07-31T02:51:54;5.50;;;2.20;;
5682;SDS011;2864;49.220;8.654;2023-07-31T02:54:19;4.03;;;2.47;;
5682;SDS011;2864;49.220;8.654;2023-07-31T02:56:46;4.27;;;2.20;;
5682;SDS011;2864;49.220;8.654;2023-07-31T02:59:12;5.73;;;1.90;;
5682;SDS011;2864;49.220;8.654;2023-07-31T03:01:38;4.50;;;2.20;;
5682;SDS011;2864;49.220;8.654;2023-07-31T03:04:03;5.67;;;2.20;;
5682;SDS011;2864;49.220;8.654;2023-07-31T03:06:29;4.67;;;2.40;;
5682;SDS011;2864;49.220;8.654;2023-07-31T03:08:55;6.33;;;2.33;;
5682;SDS011;2864;49.220;8.654;2023-07-31T03:11:20;3.67;;;2.00;;
5682;SDS011;2864;49.220;8.654;2023-07-31T03:13:46;4.00;;;2.00;;
5682;SDS011;2864;49.220;8.654;2023-07-31T03:16:11;5.90;;;2.10;;
5682;SDS011;2864;49.220;8.654;2023-07-31T03:18:37;4.53;;;2.00;;
5682;SDS011;2864;49.220;8.654;2023-07-31T03:21:02;4.00;;;2.03;;
5682;SDS011;2864;49.220;8.654;2023-07-31T03:23:29;3.23;;;2.13;;
5682;SDS011;2864;49.220;8.654;2023-07-31T03:25:58;4.87;;;2.30;;
5682;SDS011;2864;49.220;8.654;2023-07-31T03:28:25;4.93;;;2.20;;
5682;SDS011;2864;49.220;8.654;2023-07-31T03:30:51;4.87;;;2.50;;
5682;SDS011;2864;49.220;8.654;2023-07-31T03:33:17;5.73;;;2.50;;
5682;SDS011;2864;49.220;8.654;2023-07-31T03:35:43;5.67;;;2.10;;
5682;SDS011;2864;49.220;8.654;2023-07-31T03:38:08;4.20;;;2.30;;
5682;SDS011;2864;49.220;8.654;2023-07-31T03:40:34;3.63;;;1.77;;
5682;SDS011;2864;49.220;8.654;2023-07-31T03:42:59;4.47;;;2.20;;
5682;SDS011;2864;49.220;8.654;2023-07-31T03:45:25;4.20;;;2.43;;
5682;SDS011;2864;49.220;8.654;2023-07-31T03:47:51;4.27;;;2.53;;
5682;SDS011;2864;49.220;8.654;2023-07-31T03:50:16;5.87;;;2.40;;
5682;SDS011;2864;49.220;8.654;2023-07-31T03:52:42;5.20;;;2.00;;
5682;SDS011;2864;49.220;8.654;2023-07-31T03:55:07;5.73;;;2.50;;
5682;SDS011;2864;49.220;8.654;2023-07-31T03:57:33;3.77;;;2.30;;
5682;SDS011;2864;49.220;8.654;2023-07-31T03:59:59;5.37;;;2.70;;
5682;SDS011;2864;49.220;8.654;2023-07-31T04:02:24;3.00;;;2.20;;
5682;SDS011;2864;49.220;8.654;2023-07-31T04:04:50;4.57;;;2.20;;
5682;SDS011;2864;49.220;8.654;2023-07-31T04:07:15;3.40;;;2.00;;
5682;SDS011;2864;49.220;8.654;2023-07-31T04:09:41;6.17;;;2.20;;
5682;SDS011;2864;49.220;8.654;2023-07-31T04:12:06;5.87;;;2.47;;
5682;SDS011;2864;49.220;8.654;2023-07-31T04:14:32;3.17;;;2.20;;
5682;SDS011;2864;49.220;8.654;2023-07-31T04:16:58;4.87;;;2.50;;
5682;SDS011;2864;49.220;8.654;2023-07-31T04:19:24;5.53;;;2.30;;
5682;SDS011;2864;49.220;8.654;2023-07-31T04:21:49;4.90;;;2.33;;
5682;SDS011;2864;49.220;8.654;2023-07-31T04:24:15;3.87;;;2.03;;
5682;SDS011;2864;49.220;8.654;2023-07-31T04:26:40;5.60;;;2.17;;
5682;SDS011;2864;49.220;8.654;2023-07-31T04:29:06;5.77;;;2.43;;
5682;SDS011;2864;49.220;8.654;2023-07-31T04:31:32;6.57;;;2.47;;
5682;SDS011;2864;49.220;8.654;2023-07-31T04:33:58;6.27;;;2.50;;
5682;SDS011;2864;49.220;8.654;2023-07-31T04:36:24;4.77;;;2.40;;
5682;SDS011;2864;49.220;8.654;2023-07-31T04:38:49;6.17;;;2.53;;
5682;SDS011;2864;49.220;8.654;2023-07-31T04:41:15;4.03;;;2.00;;
5682;SDS011;2864;49.220;8.654;2023-07-31T04:43:41;3.73;;;2.10;;
5682;SDS011;2864;49.220;8.654;2023-07-31T04:46:06;5.77;;;2.40;;
5682;SDS011;2864;49.220;8.654;2023-07-31T04:48:32;4.67;;;2.40;;
5682;SDS011;2864;49.220;8.654;2023-07-31T04:50:57;4.40;;;2.60;;
5682;SDS011;2864;49.220;8.654;2023-07-31T04:53:23;3.63;;;2.20;;
5682;SDS011;2864;49.220;8.654;2023-07-31T04:55:48;4.73;;;2.03;;
5682;SDS011;2864;49.220;8.654;2023-07-31T04:58:14;6.07;;;2.20;;
5682;SDS011;2864;49.220;8.654;2023-07-31T05:00:39;4.53;;;2.20;;
5682;SDS011;2864;49.220;8.654;2023-07-31T05:03:05;3.93;;;2.20;;
5682;SDS011;2864;49.220;8.654;2023-07-31T05:05:31;3.97;;;2.53;;
5682;SDS011;2864;49.220;8.654;2023-07-31T05:07:57;2.97;;;2.03;;
5682;SDS011;2864;49.220;8.654;2023-07-31T05:10:23;4.33;;;2.10;;
5682;SDS011;2864;49.220;8.654;2023-07-31T05:12:48;5.60;;;2.30;;
5682;SDS011;2864;49.220;8.654;2023-07-31T05:15:14;5.70;;;2.03;;
5682;SDS011;2864;49.220;8.654;2023-07-31T05:17:40;6.03;;;2.60;;
5682;SDS011;2864;49.220;8.654;2023-07-31T05:20:05;5.70;;;2.60;;
5682;SDS011;2864;49.220;8.654;2023-07-31T05:22:31;4.83;;;2.27;;
5682;SDS011;2864;49.220;8.654;2023-07-31T05:24:57;5.73;;;2.23;;
5682;SDS011;2864;49.220;8.654;2023-07-31T05:27:22;5.53;;;2.20;;
5682;SDS011;2864;49.220;8.654;2023-07-31T05:29:48;4.90;;;2.23;;
5682;SDS011;2864;49.220;8.654;2023-07-31T05:32:13;6.80;;;2.30;;
5682;SDS011;2864;49.220;8.654;2023-07-31T05:34:39;3.97;;;2.10;;
5682;SDS011;2864;49.220;8.654;2023-07-31T05:37:04;4.43;;;2.10;;
5682;SDS011;2864;49.220;8.654;2023-07-31T05:39:31;5.43;;;2.30;;
5682;SDS011;2864;49.220;8.654;2023-07-31T05:41:56;3.87;;;2.40;;
5682;SDS011;2864;49.220;8.654;2023-07-31T05:44:22;3.40;;;2.33;;
5682;SDS011;2864;49.220;8.654;2023-07-31T05:46:47;4.33;;;2.30;;
5682;SDS011;2864;49.220;8.654;2023-07-31T05:49:13;5.67;;;2.40;;
5682;SDS011;2864;49.220;8.654;2023-07-31T05:51:38;4.10;;;2.43;;
5682;SDS011;2864;49.220;8.654;2023-07-31T05:54:04;5.43;;;2.30;;
5682;SDS011;2864;49.220;8.654;2023-07-31T05:56:29;6.30;;;2.10;;
5682;SDS011;2864;49.220;8.654;2023-07-31T05:58:56;3.73;;;2.30;;
5682;SDS011;2864;49.220;8.654;2023-07-31T06:01:22;6.00;;;2.30;;
5682;SDS011;2864;49.220;8.654;2023-07-31T06:03:47;3.60;;;2.20;;
5682;SDS011;2864;49.220;8.654;2023-07-31T06:06:13;3.57;;;2.20;;
5682;SDS011;2864;49.220;8.654;2023-07-31T06:08:39;5.77;;;2.17;;
5682;SDS011;2864;49.220;8.654;2023-07-31T06:11:05;6.83;;;2.43;;
5682;SDS011;2864;49.220;8.654;2023-07-31T06:13:30;4.43;;;2.50;;
5682;SDS011;2864;49.220;8.654;2023-07-31T06:15:56;5.97;;;2.53;;
5682;SDS011;2864;49.220;8.654;2023-07-31T06:18:22;8.10;;;2.67;;
5682;SDS011;2864;49.220;8.654;2023-07-31T06:20:47;5.60;;;2.20;;
5682;SDS011;2864;49.220;8.654;2023-07-31T06:23:18;3.73;;;2.20;;
5682;SDS011;2864;49.220;8.654;2023-07-31T06:25:44;2.80;;;2.10;;
5682;SDS011;2864;49.220;8.654;2023-07-31T06:28:09;4.27;;;2.40;;
5682;SDS011;2864;49.220;8.654;2023-07-31T06:30:35;7.17;;;2.30;;
5682;SDS011;2864;49.220;8.654;2023-07-31T06:33:00;6.53;;;2.63;;
5682;SDS011;2864;49.220;8.654;2023-07-31T06:35:26;5.83;;;2.53;;
5682;SDS011;2864;49.220;8.654;2023-07-31T06:37:52;5.00;;;2.63;;
5682;SDS011;2864;49.220;8.654;2023-07-31T06:40:17;4.30;;;2.30;;
5682;SDS011;2864;49.220;8.654;2023-07-31T06:42:44;4.93;;;2.43;;
5682;SDS011;2864;49.220;8.654;2023-07-31T06:45:10;2.80;;;2.10;;
5682;SDS011;2864;49.220;8.654;2023-07-31T06:47:36;4.13;;;2.50;;
5682;SDS011;2864;49.220;8.654;2023-07-31T06:50:01;6.30;;;2.33;;
5682;SDS011;2864;49.220;8.654;2023-07-31T06:52:27;5.57;;;2.30;;
5682;SDS011;2864;49.220;8.654;2023-07-31T06:55:02;8.77;;;2.40;;
5682;SDS011;2864;49.220;8.654;2023-07-31T06:57:45;4.63;;;2.30;;
5682;SDS011;2864;49.220;8.654;2023-07-31T07:00:11;5.83;;;2.37;;
5682;SDS011;2864;49.220;8.654;2023-07-31T07:02:37;3.40;;;2.10;;
5682;SDS011;2864;49.220;8.654;2023-07-31T07:05:02;6.47;;;2.40;;
5682;SDS011;2864;49.220;8.654;2023-07-31T07:07:28;3.47;;;2.20;;
5682;SDS011;2864;49.220;8.654;2023-07-31T07:09:54;3.97;;;2.20;;
5682;SDS011;2864;49.220;8.654;2023-07-31T07:12:20;3.93;;;2.00;;
5682;SDS011;2864;49.220;8.654;2023-07-31T07:14:46;6.87;;;2.30;;
5682;SDS011;2864;49.220;8.654;2023-07-31T07:17:12;5.13;;;2.67;;
5682;SDS011;2864;49.220;8.654;2023-07-31T07:19:40;6.07;;;2.50;;
5682;SDS011;2864;49.220;8.654;2023-07-31T07:22:06;4.93;;;2.23;;
5682;SDS011;2864;49.220;8.654;2023-07-31T07:24:31;5.97;;;2.23;;
5682;SDS011;2864;49.220;8.654;2023-07-31T07:26:57;4.70;;;2.43;;
5682;SDS011;2864;49.220;8.654;2023-07-31T07:29:23;6.00;;;2.27;;
5682;SDS011;2864;49.220;8.654;2023-07-31T07:31:48;5.87;;;2.50;;
5682;SDS011;2864;49.220;8.654;2023-07-31T07:34:14;7.53;;;2.57;;
5682;SDS011;2864;49.220;8.654;2023-07-31T07:36:39;4.07;;;2.30;;
5682;SDS011;2864;49.220;8.654;2023-07-31T07:39:05;4.57;;;2.33;;
5682;SDS011;2864;49.220;8.654;2023-07-31T07:41:30;4.23;;;2.23;;
5682;SDS011;2864;49.220;8.654;2023-07-31T07:43:56;6.17;;;2.40;;
5682;SDS011;2864;49.220;8.654;2023-07-31T07:46:21;5.33;;;2.40;;
5682;SDS011;2864;49.220;8.654;2023-07-31T07:48:48;3.57;;;2.23;;
5682;SDS011;2864;49.220;8.654;2023-07-31T07:51:13;7.93;;;3.17;;
5682;SDS011;2864;49.220;8.654;2023-07-31T07:53:39;3.30;;;2.27;;
5682;SDS011;2864;49.220;8.654;2023-07-31T07:56:04;5.33;;;2.67;;
5682;SDS011;2864;49.220;8.654;2023-07-31T07:58:30;5.10;;;2.47;;
5682;SDS011;2864;49.220;8.654;2023-07-31T08:00:55;4.67;;;2.50;;
5682;SDS011;2864;49.220;8.654;2023-07-31T08:03:21;6.37;;;2.20;;
5682;SDS011;2864;49.220;8.654;2023-07-31T08:05:46;6.33;;;2.43;;
5682;SDS011;2864;49.220;8.654;2023-07-31T08:08:14;3.97;;;2.20;;
5682;SDS011;2864;49.220;8.654;2023-07-31T08:10:44;4.63;;;2.27;;
5682;SDS011;2864;49.220;8.654;2023-07-31T08:13:10;6.93;;;2.50;;
5682;SDS011;2864;49.220;8.654;2023-07-31T08:15:37;3.57;;;2.40;;
5682;SDS011;2864;49.220;8.654;2023-07-31T08:18:02;5.07;;;2.33;;
5682;SDS011;2864;49.220;8.654;2023-07-31T08:20:28;7.70;;;2.80;;
5682;SDS011;2864;49.220;8.654;2023-07-31T08:22:53;6.00;;;2.90;;
5682;SDS011;2864;49.220;8.654;2023-07-31T08:25:19;3.50;;;2.20;;
5682;SDS011;2864;49.220;8.654;2023-07-31T08:27:44;7.30;;;2.87;;
5682;SDS011;2864;49.220;8.654;2023-07-31T08:30:11;4.63;;;2.27;;
5682;SDS011;2864;49.220;8.654;2023-07-31T08:32:37;5.63;;;2.70;;
5682;SDS011;2864;49.220;8.654;2023-07-31T08:35:03;6.47;;;2.70;;
5682;SDS011;2864;49.220;8.654;2023-07-31T08:37:29;6.33;;;2.67;;
5682;SDS011;2864;49.220;8.654;2023-07-31T08:39:54;6.90;;;2.73;;
5682;SDS011;2864;49.220;8.654;2023-07-31T08:42:20;4.30;;;2.60;;
5682;SDS011;2864;49.220;8.654;2023-07-31T08:44:46;4.27;;;2.63;;
5682;SDS011;2864;49.220;8.654;2023-07-31T08:47:12;5.57;;;2.60;;
5682;SDS011;2864;49.220;8.654;2023-07-31T08:49:39;3.17;;;2.20;;
5682;SDS011;2864;49.220;8.654;2023-07-31T08:52:06;4.63;;;2.80;;
5682;SDS011;2864;49.220;8.654;2023-07-31T08:54:31;5.27;;;2.57;;
5682;SDS011;2864;49.220;8.654;2023-07-31T08:56:58;7.17;;;2.50;;
5682;SDS011;2864;49.220;8.654;2023-07-31T08:59:26;5.23;;;2.37;;
5682;SDS011;2864;49.220;8.654;2023-07-31T09:01:54;5.57;;;2.60;;
5682;SDS011;2864;49.220;8.654;2023-07-31T09:04:22;7.53;;;2.73;;
5682;SDS011;2864;49.220;8.654;2023-07-31T09:06:48;8.67;;;2.53;;
5682;SDS011;2864;49.220;8.654;2023-07-31T09:09:15;8.57;;;2.60;;
5682;SDS011;2864;49.220;8.654;2023-07-31T09:11:41;7.30;;;2.60;;
5682;SDS011;2864;49.220;8.654;2023-07-31T09:14:07;5.27;;;2.50;;
5682;SDS011;2864;49.220;8.654;2023-07-31T09:16:34;7.13;;;2.70;;
5682;SDS011;2864;49.220;8.654;2023-07-31T09:19:00;7.00;;;2.70;;
5682;SDS011;2864;49.220;8.654;2023-07-31T09:21:30;5.63;;;2.97;;
5682;SDS011;2864;49.220;8.654;2023-07-31T09:23:55;7.93;;;2.90;;
5682;SDS011;2864;49.220;8.654;2023-07-31T09:26:35;6.47;;;2.70;;
5682;SDS011;2864;49.220;8.654;2023-07-31T09:29:04;5.20;;;2.73;;
5682;SDS011;2864;49.220;8.654;2023-07-31T09:31:39;6.57;;;2.87;;
5682;SDS011;2864;49.220;8.654;2023-07-31T09:34:06;7.00;;;2.77;;
5682;SDS011;2864;49.220;8.654;2023-07-31T09:36:32;6.73;;;3.03;;
5682;SDS011;2864;49.220;8.654;2023-07-31T09:39:03;6.67;;;2.70;;
5682;SDS011;2864;49.220;8.654;2023-07-31T09:41:30;7.83;;;2.90;;
5682;SDS011;2864;49.220;8.654;2023-07-31T09:43:56;5.17;;;2.70;;
5682;SDS011;2864;49.220;8.654;2023-07-31T09:46:21;4.83;;;2.60;;
5682;SDS011;2864;49.220;8.654;2023-07-31T09:48:47;9.37;;;2.93;;
5682;SDS011;2864;49.220;8.654;2023-07-31T09:51:13;6.73;;;2.87;;
5682;SDS011;2864;49.220;8.654;2023-07-31T09:53:39;7.63;;;3.10;;
5682;SDS011;2864;49.220;8.654;2023-07-31T09:56:04;5.70;;;3.10;;
5682;SDS011;2864;49.220;8.654;2023-07-31T09:58:30;7.80;;;3.10;;
5682;SDS011;2864;49.220;8.654;2023-07-31T10:00:59;5.10;;;2.70;;
5682;SDS011;2864;49.220;8.654;2023-07-31T10:03:26;6.60;;;2.60;;
5682;SDS011;2864;49.220;8.654;2023-07-31T10:05:54;7.67;;;3.13;;
5682;SDS011;2864;49.220;8.654;2023-07-31T10:08:21;4.60;;;3.10;;
5682;SDS011;2864;49.220;8.654;2023-07-31T10:10:54;6.07;;;2.77;;
5682;SDS011;2864;49.220;8.654;2023-07-31T10:13:24;6.87;;;2.73;;
5682;SDS011;2864;49.220;8.654;2023-07-31T10:15:52;7.53;;;3.00;;
5682;SDS011;2864;49.220;8.654;2023-07-31T10:18:19;4.70;;;2.53;;
5682;SDS011;2864;49.220;8.654;2023-07-31T10:20:45;5.53;;;2.70;;
5682;SDS011;2864;49.220;8.654;2023-07-31T10:23:12;7.07;;;3.17;;
5682;SDS011;2864;49.220;8.654;2023-07-31T10:25:38;6.73;;;2.93;;
5682;SDS011;2864;49.220;8.654;2023-07-31T10:28:04;7.80;;;2.80;;
5682;SDS011;2864;49.220;8.654;2023-07-31T10:30:32;8.27;;;3.27;;
5682;SDS011;2864;49.220;8.654;2023-07-31T10:32:59;8.17;;;3.50;;
5682;SDS011;2864;49.220;8.654;2023-07-31T10:35:26;5.33;;;2.73;;
5682;SDS011;2864;49.220;8.654;2023-07-31T10:37:52;7.00;;;3.27;;
5682;SDS011;2864;49.220;8.654;2023-07-31T10:40:19;6.13;;;2.80;;
5682;SDS011;2864;49.220;8.654;2023-07-31T10:42:49;5.13;;;3.03;;
5682;SDS011;2864;49.220;8.654;2023-07-31T10:45:25;6.27;;;2.80;;
5682;SDS011;2864;49.220;8.654;2023-07-31T10:48:04;7.07;;;2.97;;
5682;SDS011;2864;49.220;8.654;2023-07-31T10:50:32;7.83;;;3.00;;
5682;SDS011;2864;49.220;8.654;2023-07-31T10:53:02;6.60;;;2.80;;
5682;SDS011;2864;49.220;8.654;2023-07-31T10:55:46;4.50;;;2.73;;
5682;SDS011;2864;49.220;8.654;2023-07-31T10:58:14;5.93;;;2.70;;
5682;SDS011;2864;49.220;8.654;2023-07-31T11:00:43;6.20;;;2.93;;
5682;SDS011;2864;49.220;8.654;2023-07-31T11:03:10;6.57;;;2.83;;
5682;SDS011;2864;49.220;8.654;2023-07-31T11:08:12;5.53;;;2.80;;
5682;SDS011;2864;49.220;8.654;2023-07-31T11:10:42;5.93;;;2.87;;
5682;SDS011;2864;49.220;8.654;2023-07-31T11:13:09;5.33;;;2.90;;
5682;SDS011;2864;49.220;8.654;2023-07-31T11:15:35;4.47;;;2.60;;
5682;SDS011;2864;49.220;8.654;2023-07-31T11:18:00;6.90;;;2.87;;
5682;SDS011;2864;49.220;8.654;2023-07-31T11:20:35;5.00;;;3.07;;
5682;SDS011;2864;49.220;8.654;2023-07-31T11:23:03;7.67;;;3.13;;
5682;SDS011;2864;49.220;8.654;2023-07-31T11:25:31;6.80;;;2.83;;
5682;SDS011;2864;49.220;8.654;2023-07-31T11:28:07;6.13;;;3.10;;
5682;SDS011;2864;49.220;8.654;2023-07-31T11:30:35;7.10;;;3.07;;
5682;SDS011;2864;49.220;8.654;2023-07-31T11:33:01;7.30;;;2.70;;
5682;SDS011;2864;49.220;8.654;2023-07-31T11:35:29;4.43;;;2.70;;
5682;SDS011;2864;49.220;8.654;2023-07-31T11:37:56;3.70;;;2.67;;
5682;SDS011;2864;49.220;8.654;2023-07-31T11:40:21;5.00;;;2.53;;
5682;SDS011;2864;49.220;8.654;2023-07-31T11:42:47;5.20;;;2.93;;
5682;SDS011;2864;49.220;8.654;2023-07-31T11:45:12;7.85;;;2.92;;
5682;SDS011;2864;49.220;8.654;2023-07-31T11:47:38;5.63;;;2.60;;
5682;SDS011;2864;49.220;8.654;2023-07-31T11:50:04;7.43;;;2.80;;
5682;SDS011;2864;49.220;8.654;2023-07-31T11:52:43;5.97;;;2.77;;
5682;SDS011;2864;49.220;8.654;2023-07-31T11:55:11;6.50;;;2.75;;
5682;SDS011;2864;49.220;8.654;2023-07-31T11:57:40;4.70;;;2.97;;
5682;SDS011;2864;49.220;8.654;2023-07-31T12:00:08;5.73;;;3.23;;
5682;SDS011;2864;49.220;8.654;2023-07-31T12:02:36;6.13;;;2.87;;
5682;SDS011;2864;49.220;8.654;2023-07-31T12:05:02;4.67;;;2.87;;
5682;SDS011;2864;49.220;8.654;2023-07-31T12:07:42;6.93;;;2.73;;
5682;SDS011;2864;49.220;8.654;2023-07-31T12:10:36;5.20;;;3.00;;
5682;SDS011;2864;49.220;8.654;2023-07-31T12:13:12;6.80;;;2.47;;
5682;SDS011;2864;49.220;8.654;2023-07-31T12:15:55;5.13;;;2.77;;
5682;SDS011;2864;49.220;8.654;2023-07-31T12:18:22;7.60;;;2.70;;
5682;SDS011;2864;49.220;8.654;2023-07-31T12:20:54;7.57;;;3.00;;
5682;SDS011;2864;49.220;8.654;2023-07-31T12:23:31;3.60;;;2.47;;
5682;SDS011;2864;49.220;8.654;2023-07-31T12:26:04;6.83;;;3.10;;
5682;SDS011;2864;49.220;8.654;2023-07-31T12:28:42;7.63;;;3.53;;
5682;SDS011;2864;49.220;8.654;2023-07-31T12:31:13;6.50;;;3.13;;
5682;SDS011;2864;49.220;8.654;2023-07-31T12:33:40;6.43;;;3.00;;
5682;SDS011;2864;49.220;8.654;2023-07-31T12:36:08;4.60;;;2.83;;
5682;SDS011;2864;49.220;8.654;2023-07-31T12:38:41;6.07;;;2.90;;
5682;SDS011;2864;49.220;8.654;2023-07-31T12:41:07;4.90;;;2.70;;
5682;SDS011;2864;49.220;8.654;2023-07-31T12:43:33;5.32;;;2.83;;
5682;SDS011;2864;49.220;8.654;2023-07-31T12:45:59;5.03;;;2.50;;
5682;SDS011;2864;49.220;8.654;2023-07-31T12:48:25;5.00;;;2.80;;
5682;SDS011;2864;49.220;8.654;2023-07-31T12:50:51;5.33;;;2.60;;
5682;SDS011;2864;49.220;8.654;2023-07-31T12:53:16;5.00;;;2.67;;
5682;SDS011;2864;49.220;8.654;2023-07-31T12:55:42;6.07;;;2.95;;
5682;SDS011;2864;49.220;8.654;2023-07-31T12:58:07;5.22;;;2.70;;
5682;SDS011;2864;49.220;8.654;2023-07-31T13:00:33;5.97;;;2.88;;
5682;SDS011;2864;49.220;8.654;2023-07-31T13:02:59;6.88;;;2.90;;
5682;SDS011;2864;49.220;8.654;2023-07-31T13:05:26;4.57;;;2.58;;
5682;SDS011;2864;49.220;8.654;2023-07-31T13:07:52;4.72;;;2.72;;
5682;SDS011;2864;49.220;8.654;2023-07-31T13:10:17;5.47;;;2.70;;
5682;SDS011;2864;49.220;8.654;2023-07-31T13:12:43;6.40;;;2.80;;
5682;SDS011;2864;49.220;8.654;2023-07-31T13:15:09;6.18;;;2.90;;
5682;SDS011;2864;49.220;8.654;2023-07-31T13:17:35;7.85;;;3.08;;
5682;SDS011;2864;49.220;8.654;2023-07-31T13:20:01;4.13;;;2.80;;
5682;SDS011;2864;49.220;8.654;2023-07-31T13:22:28;7.65;;;2.78;;
5682;SDS011;2864;49.220;8.654;2023-07-31T13:24:53;7.60;;;3.00;;
5682;SDS011;2864;49.220;8.654;2023-07-31T13:27:19;8.52;;;2.60;;
5682;SDS011;2864;49.220;8.654;2023-07-31T13:29:46;4.88;;;2.78;;
5682;SDS011;2864;49.220;8.654;2023-07-31T13:32:16;5.75;;;3.03;;
5682;SDS011;2864;49.220;8.654;2023-07-31T13:34:42;6.30;;;2.93;;
5682;SDS011;2864;49.220;8.654;2023-07-31T13:37:08;4.72;;;3.10;;
5682;SDS011;2864;49.220;8.654;2023-07-31T13:39:34;4.90;;;2.83;;
5682;SDS011;2864;49.220;8.654;2023-07-31T13:41:59;7.33;;;2.83;;
5682;SDS011;2864;49.220;8.654;2023-07-31T13:44:26;5.10;;;2.60;;
5682;SDS011;2864;49.220;8.654;2023-07-31T13:46:51;6.43;;;2.70;;
5682;SDS011;2864;49.220;8.654;2023-07-31T13:49:17;5.60;;;3.40;;
5682;SDS011;2864;49.220;8.654;2023-07-31T13:51:42;5.33;;;2.67;;
5682;SDS011;2864;49.220;8.654;2023-07-31T13:54:09;6.50;;;2.70;;
5682;SDS011;2864;49.220;8.654;2023-07-31T13:56:36;6.50;;;2.65;;
5682;SDS011;2864;49.220;8.654;2023-07-31T13:59:02;7.13;;;2.88;;
5682;SDS011;2864;49.220;8.654;2023-07-31T14:01:28;5.10;;;2.50;;
5682;SDS011;2864;49.220;8.654;2023-07-31T14:03:53;5.80;;;3.13;;
5682;SDS011;2864;49.220;8.654;2023-07-31T14:06:19;5.45;;;2.60;;
5682;SDS011;2864;49.220;8.654;2023-07-31T14:08:44;3.70;;;2.55;;
5682;SDS011;2864;49.220;8.654;2023-07-31T14:11:10;5.53;;;3.10;;
5682;SDS011;2864;49.220;8.654;2023-07-31T14:13:36;5.63;;;2.80;;
5682;SDS011;2864;49.220;8.654;2023-07-31T14:16:01;3.78;;;2.78;;
5682;SDS011;2864;49.220;8.654;2023-07-31T14:18:27;4.65;;;2.92;;
5682;SDS011;2864;49.220;8.654;2023-07-31T14:20:52;7.83;;;2.87;;
5682;SDS011;2864;49.220;8.654;2023-07-31T14:23:18;6.07;;;2.85;;
5682;SDS011;2864;49.220;8.654;2023-07-31T14:25:45;5.87;;;3.10;;
5682;SDS011;2864;49.220;8.654;2023-07-31T14:28:10;9.00;;;2.80;;
5682;SDS011;2864;49.220;8.654;2023-07-31T14:30:36;6.00;;;2.90;;
5682;SDS011;2864;49.220;8.654;2023-07-31T14:33:02;7.50;;;3.40;;
5682;SDS011;2864;49.220;8.654;2023-07-31T14:35:27;5.73;;;3.10;;
5682;SDS011;2864;49.220;8.654;2023-07-31T14:37:53;6.47;;;3.00;;
5682;SDS011;2864;49.220;8.654;2023-07-31T14:40:18;4.93;;;2.57;;
5682;SDS011;2864;49.220;8.654;2023-07-31T14:42:44;5.77;;;2.90;;
5682;SDS011;2864;49.220;8.654;2023-07-31T14:45:10;6.10;;;2.90;;
5682;SDS011;2864;49.220;8.654;2023-07-31T14:47:35;6.70;;;2.87;;
5682;SDS011;2864;49.220;8.654;2023-07-31T14:50:02;6.60;;;2.53;;
5682;SDS011;2864;49.220;8.654;2023-07-31T14:52:28;6.00;;;2.73;;
5682;SDS011;2864;49.220;8.654;2023-07-31T14:54:54;6.43;;;2.80;;
5682;SDS011;2864;49.220;8.654;2023-07-31T14:57:19;7.63;;;2.73;;
5682;SDS011;2864;49.220;8.654;2023-07-31T15:03:09;5.50;;;3.05;;
5682;SDS011;2864;49.220;8.654;2023-07-31T15:05:34;6.45;;;2.58;;
5682;SDS011;2864;49.220;8.654;2023-07-31T15:08:00;5.35;;;2.97;;
5682;SDS011;2864;49.220;8.654;2023-07-31T15:10:25;4.63;;;2.80;;
5682;SDS011;2864;49.220;8.654;2023-07-31T15:16:12;7.25;;;2.92;;
5682;SDS011;2864;49.220;8.654;2023-07-31T15:18:38;4.47;;;2.78;;
5682;SDS011;2864;49.220;8.654;2023-07-31T15:21:04;3.80;;;2.70;;
5682;SDS011;2864;49.220;8.654;2023-07-31T15:23:31;5.25;;;3.05;;
5682;SDS011;2864;49.220;8.654;2023-07-31T15:25:57;6.78;;;2.85;;
5682;SDS011;2864;49.220;8.654;2023-07-31T15:28:22;4.60;;;2.85;;
5682;SDS011;2864;49.220;8.654;2023-07-31T15:30:48;4.95;;;2.80;;
5682;SDS011;2864;49.220;8.654;2023-07-31T15:33:13;3.92;;;2.63;;
5682;SDS011;2864;49.220;8.654;2023-07-31T15:35:39;3.88;;;2.58;;